createdAt,value
2019-06-15T00:00:23.551Z,9.80
2019-06-15T00:02:49.873Z,10.10
2019-06-15T00:05:16.312Z,9.20
2019-06-15T00:07:42.603Z,9.47
2019-06-15T00:10:09.165Z,9.63
2019-06-15T00:12:35.759Z,8.97
2019-06-15T00:15:05.090Z,8.20
2019-06-15T00:17:31.440Z,9.53
2019-06-15T00:19:57.679Z,10.00
2019-06-15T00:22:23.929Z,9.60
2019-06-15T00:24:50.170Z,9.60
2019-06-15T00:27:16.404Z,8.43
2019-06-15T00:29:42.646Z,9.63
2019-06-15T00:32:09.154Z,8.60
2019-06-15T00:34:35.391Z,9.33
2019-06-15T00:37:04.709Z,10.77
2019-06-15T00:39:29.805Z,9.67
2019-06-15T00:41:56.262Z,10.20
2019-06-15T00:44:22.506Z,11.63
2019-06-15T00:46:48.864Z,10.20
2019-06-15T00:49:15.102Z,8.73
2019-06-15T00:51:41.346Z,10.60
2019-06-15T00:54:07.583Z,13.73
2019-06-15T00:56:33.823Z,12.30
2019-06-15T00:59:00.262Z,11.17
2019-06-15T01:01:26.505Z,11.40
2019-06-15T01:03:53.839Z,11.70
2019-06-15T01:06:20.656Z,11.40
2019-06-15T01:08:46.896Z,11.17
2019-06-15T01:11:13.141Z,9.37
2019-06-15T01:13:39.745Z,10.23
2019-06-15T01:16:05.984Z,11.27
2019-06-15T01:18:32.216Z,10.33
2019-06-15T01:20:58.445Z,9.43
2019-06-15T01:23:24.796Z,10.10
2019-06-15T01:25:51.030Z,9.37
2019-06-15T01:28:17.274Z,9.63
2019-06-15T01:30:44.798Z,10.03
2019-06-15T01:33:11.049Z,9.87
2019-06-15T01:35:37.288Z,9.80
2019-06-15T01:38:03.538Z,9.80
2019-06-15T01:40:29.785Z,9.27
2019-06-15T01:42:56.130Z,10.07
2019-06-15T01:45:24.883Z,9.37
2019-06-15T01:47:51.223Z,9.87
2019-06-15T01:50:17.566Z,8.40
2019-06-15T01:52:43.788Z,9.67
2019-06-15T01:55:20.399Z,11.10
2019-06-15T01:57:38.838Z,10.13
2019-06-15T02:00:06.872Z,11.00
2019-06-15T02:02:34.082Z,10.33
2019-06-15T02:05:00.586Z,10.00
2019-06-15T02:07:26.837Z,10.60
2019-06-15T02:09:53.168Z,10.30
2019-06-15T02:12:20.049Z,10.90
2019-06-15T02:14:46.361Z,11.50
2019-06-15T02:17:12.858Z,11.10
2019-06-15T02:19:39.095Z,9.73
2019-06-15T02:22:05.338Z,9.77
2019-06-15T02:24:31.567Z,9.57
2019-06-15T02:26:57.805Z,10.90
2019-06-15T02:29:24.138Z,10.70
2019-06-15T02:31:50.377Z,9.60
2019-06-15T02:34:16.612Z,10.53
2019-06-15T02:36:42.961Z,9.73
2019-06-15T02:39:09.298Z,9.30
2019-06-15T02:41:35.539Z,8.00
2019-06-15T02:44:02.082Z,8.73
2019-06-15T02:46:28.627Z,8.63
2019-06-15T02:48:54.855Z,8.10
2019-06-15T02:51:21.490Z,7.67
2019-06-15T02:53:47.921Z,6.90
2019-06-15T02:56:14.189Z,7.80
2019-06-15T02:58:40.489Z,8.23
2019-06-15T03:01:07.746Z,9.30
2019-06-15T03:03:33.985Z,8.87
2019-06-15T03:06:00.425Z,9.40
2019-06-15T03:08:26.854Z,9.50
2019-06-15T03:10:53.369Z,9.50
2019-06-15T03:13:19.710Z,9.83
2019-06-15T03:15:48.756Z,11.60
2019-06-15T03:18:15.290Z,9.77
2019-06-15T03:20:41.616Z,10.17
2019-06-15T03:23:07.851Z,11.77
2019-06-15T03:25:34.094Z,9.50
2019-06-15T03:28:00.318Z,9.13
2019-06-15T03:30:26.535Z,8.90
2019-06-15T03:32:52.870Z,8.30
2019-06-15T03:35:19.516Z,9.20
2019-06-15T03:37:45.764Z,8.90
2019-06-15T03:40:13.899Z,9.00
2019-06-15T03:42:40.947Z,8.07
2019-06-15T03:45:08.250Z,8.30
2019-06-15T03:47:34.597Z,8.10
2019-06-15T03:50:00.833Z,8.13
2019-06-15T03:52:27.175Z,7.10
2019-06-15T03:54:53.411Z,8.60
2019-06-15T03:57:19.645Z,8.90
2019-06-15T03:59:45.893Z,9.10
2019-06-15T04:02:12.134Z,9.20
2019-06-15T04:04:38.374Z,8.80
2019-06-15T04:07:04.921Z,9.10
2019-06-15T04:09:31.161Z,9.80
2019-06-15T04:11:57.394Z,9.80
2019-06-15T04:14:24.017Z,9.87
2019-06-15T04:16:50.249Z,10.30
2019-06-15T04:19:16.492Z,10.50
2019-06-15T04:21:43.013Z,9.80
2019-06-15T04:24:09.265Z,11.60
2019-06-15T04:26:36.505Z,11.10
2019-06-15T04:29:03.356Z,10.30
2019-06-15T04:31:29.584Z,12.13
2019-06-15T04:33:55.825Z,12.87
2019-06-15T04:36:22.152Z,12.37
2019-06-15T04:38:48.385Z,11.63
2019-06-15T04:41:14.892Z,12.60
2019-06-15T04:43:41.121Z,12.90
2019-06-15T04:46:07.360Z,12.70
2019-06-15T04:48:33.597Z,12.17
2019-06-15T04:50:59.824Z,11.90
2019-06-15T04:53:26.169Z,12.60
2019-06-15T04:55:52.400Z,13.90
2019-06-15T04:58:19.007Z,13.63
2019-06-15T05:00:45.225Z,12.77
2019-06-15T05:03:11.481Z,13.70
2019-06-15T05:05:37.714Z,13.37
2019-06-15T05:08:04.051Z,13.73
2019-06-15T05:10:30.273Z,13.17
2019-06-15T05:12:56.514Z,14.77
2019-06-15T05:15:23.322Z,14.30
2019-06-15T05:17:49.661Z,13.50
2019-06-15T05:20:16.107Z,12.33
2019-06-15T05:22:42.329Z,13.07
2019-06-15T05:25:08.770Z,12.60
2019-06-15T05:27:35.101Z,12.67
2019-06-15T05:30:03.841Z,10.70
2019-06-15T05:32:30.196Z,10.90
2019-06-15T05:34:56.420Z,10.83
2019-06-15T05:37:22.764Z,9.77
2019-06-15T05:39:49.020Z,10.27
2019-06-15T05:42:15.238Z,10.80
2019-06-15T05:44:41.477Z,9.53
2019-06-15T05:47:07.708Z,10.53
2019-06-15T05:49:33.958Z,9.20
2019-06-15T05:52:00.197Z,10.30
2019-06-15T05:54:26.420Z,7.93
2019-06-15T05:56:52.649Z,8.60
2019-06-15T05:59:18.877Z,8.33
2019-06-15T06:01:45.122Z,8.03
2019-06-15T06:04:11.344Z,9.43
2019-06-15T06:06:37.912Z,9.83
2019-06-15T06:09:05.960Z,10.80
2019-06-15T06:11:32.194Z,10.00
2019-06-15T06:13:58.769Z,10.07
2019-06-15T06:16:25.295Z,11.97
2019-06-15T06:18:51.535Z,11.93
2019-06-15T06:21:17.780Z,12.93
2019-06-15T06:23:44.012Z,12.40
2019-06-15T06:26:10.367Z,10.50
2019-06-15T06:28:36.687Z,10.87
2019-06-15T06:31:03.039Z,10.80
2019-06-15T06:33:29.363Z,12.43
2019-06-15T06:35:55.712Z,11.10
2019-06-15T06:38:22.045Z,11.07
2019-06-15T06:40:48.295Z,11.50
2019-06-15T06:43:14.666Z,8.90
2019-06-15T06:45:42.067Z,8.27
2019-06-15T06:48:08.321Z,7.33
2019-06-15T06:50:34.576Z,6.70
2019-06-15T06:53:00.795Z,6.77
2019-06-15T06:55:27.223Z,6.90
2019-06-15T06:57:57.155Z,5.50
2019-06-15T07:00:22.625Z,5.70
2019-06-15T07:02:48.973Z,5.00
2019-06-15T07:05:16.033Z,4.33
2019-06-15T07:07:42.281Z,4.00
2019-06-15T07:10:08.798Z,4.27
2019-06-15T07:12:35.341Z,4.50
2019-06-15T07:15:04.728Z,4.20
2019-06-15T07:17:30.257Z,4.00
2019-06-15T07:19:56.575Z,3.50
2019-06-15T07:22:22.916Z,3.17
2019-06-15T07:24:49.145Z,3.97
2019-06-15T07:27:15.537Z,3.50
2019-06-15T07:29:41.780Z,4.13
2019-06-15T07:32:08.038Z,4.03
2019-06-15T07:34:34.539Z,3.97
2019-06-15T07:37:01.767Z,3.53
2019-06-15T07:39:28.314Z,3.73
2019-06-15T07:41:54.597Z,4.40
2019-06-15T07:44:22.844Z,4.00
2019-06-15T07:46:49.080Z,3.87
2019-06-15T07:49:15.431Z,4.03
2019-06-15T07:51:41.658Z,4.30
2019-06-15T07:54:08.305Z,3.60
2019-06-15T07:56:34.537Z,3.90
2019-06-15T07:59:00.787Z,3.87
2019-06-15T08:01:27.030Z,4.00
2019-06-15T08:03:53.383Z,3.90
2019-06-15T08:06:19.704Z,2.70
2019-06-15T08:08:45.959Z,2.40
2019-06-15T08:11:12.187Z,2.90
2019-06-15T08:13:38.434Z,2.13
2019-06-15T08:16:04.772Z,2.10
2019-06-15T08:18:31.234Z,1.80
2019-06-15T08:20:57.792Z,1.70
2019-06-15T08:23:24.157Z,1.90
2019-06-15T08:25:50.390Z,2.00
2019-06-15T08:28:16.629Z,1.30
2019-06-15T08:30:43.367Z,2.13
2019-06-15T08:33:10.106Z,1.57
2019-06-15T08:35:36.350Z,1.50
2019-06-15T08:38:03.389Z,1.70
2019-06-15T08:40:29.721Z,1.37
2019-06-15T08:42:55.957Z,1.20
2019-06-15T08:47:58.207Z,2.00
2019-06-15T08:50:24.544Z,1.57
2019-06-15T08:52:50.876Z,1.37
2019-06-15T08:55:17.125Z,1.20
2019-06-15T08:57:43.954Z,1.07
2019-06-15T09:00:10.697Z,1.40
2019-06-15T09:02:36.929Z,0.93
2019-06-15T09:05:05.785Z,1.63
2019-06-15T09:07:32.021Z,0.90
2019-06-15T09:09:58.274Z,1.67
2019-06-15T09:12:25.155Z,0.70
2019-06-15T09:14:51.550Z,1.00
2019-06-15T09:17:44.171Z,1.10
2019-06-15T09:20:11.127Z,0.83
2019-06-15T09:22:37.381Z,1.07
2019-06-15T09:25:04.029Z,1.30
2019-06-15T09:27:30.303Z,1.33
2019-06-15T09:29:56.647Z,4.10
2019-06-15T09:32:22.915Z,2.20
2019-06-15T09:34:49.422Z,1.20
2019-06-15T09:37:15.687Z,0.80
2019-06-15T09:39:42.092Z,0.87
2019-06-15T09:42:08.333Z,1.10
2019-06-15T09:44:34.678Z,0.83
2019-06-15T09:47:00.934Z,1.00
2019-06-15T09:49:27.207Z,1.10
2019-06-15T09:51:53.562Z,1.10
2019-06-15T09:54:19.911Z,1.10
2019-06-15T09:56:49.473Z,1.20
2019-06-15T09:59:25.693Z,1.40
2019-06-15T10:01:44.030Z,1.07
2019-06-15T10:04:10.430Z,1.00
2019-06-15T10:06:36.686Z,1.17
2019-06-15T10:09:05.312Z,1.27
2019-06-15T10:11:31.637Z,0.90
2019-06-15T10:13:58.019Z,1.47
2019-06-15T10:16:24.260Z,1.10
2019-06-15T10:18:50.543Z,1.53
2019-06-15T10:21:17.103Z,1.57
2019-06-15T10:23:43.497Z,1.00
2019-06-15T10:26:10.068Z,1.20
2019-06-15T10:28:36.314Z,1.00
2019-06-15T10:31:02.670Z,1.13
2019-06-15T10:33:29.347Z,1.70
2019-06-15T10:35:55.598Z,1.50
2019-06-15T10:38:22.053Z,4.03
2019-06-15T10:40:48.336Z,1.53
2019-06-15T10:43:15.092Z,1.10
2019-06-15T10:45:41.427Z,1.20
2019-06-15T10:48:07.681Z,1.50
2019-06-15T10:50:33.941Z,1.60
2019-06-15T10:53:00.315Z,1.30
2019-06-15T10:55:26.549Z,1.50
2019-06-15T10:57:52.797Z,1.63
2019-06-15T11:00:20.034Z,1.37
2019-06-15T11:02:46.406Z,1.20
2019-06-15T11:05:15.433Z,1.70
2019-06-15T11:07:41.731Z,1.10
2019-06-15T11:10:10.789Z,1.17
2019-06-15T11:12:45.698Z,1.60
2019-06-15T11:15:06.193Z,2.33
2019-06-15T11:17:32.554Z,1.57
2019-06-15T11:19:59.074Z,1.77
2019-06-15T11:22:25.422Z,1.60
2019-06-15T11:24:51.737Z,1.10
2019-06-15T11:27:18.085Z,1.40
2019-06-15T11:29:44.314Z,1.57
2019-06-15T11:32:10.669Z,1.30
2019-06-15T11:34:36.935Z,1.37
2019-06-15T11:37:03.258Z,1.77
2019-06-15T11:39:29.512Z,1.90
2019-06-15T11:41:55.856Z,1.37
2019-06-15T11:44:22.206Z,2.10
2019-06-15T11:46:48.446Z,1.63
2019-06-15T11:49:14.717Z,1.67
2019-06-15T11:51:41.054Z,1.57
2019-06-15T11:54:07.341Z,1.27
2019-06-15T11:56:33.688Z,1.40
2019-06-15T11:59:00.029Z,1.87
2019-06-15T12:01:26.330Z,2.03
2019-06-15T12:03:53.045Z,2.30
2019-06-15T12:06:19.394Z,2.10
2019-06-15T12:08:46.185Z,1.60
2019-06-15T12:11:12.536Z,1.70
2019-06-15T12:13:38.778Z,1.53
2019-06-15T12:16:05.062Z,1.60
2019-06-15T12:18:31.402Z,1.60
2019-06-15T12:20:57.772Z,1.93
2019-06-15T12:23:24.008Z,1.50
2019-06-15T12:25:50.373Z,1.47
2019-06-15T12:28:16.903Z,2.03
2019-06-15T12:30:47.178Z,1.70
2019-06-15T12:33:11.414Z,1.67
2019-06-15T12:35:37.983Z,2.27
2019-06-15T12:38:04.433Z,1.70
2019-06-15T12:40:30.873Z,1.80
2019-06-15T12:42:57.210Z,2.07
2019-06-15T12:45:23.650Z,1.73
2019-06-15T12:47:49.886Z,2.43
2019-06-15T12:50:16.229Z,1.77
2019-06-15T12:52:42.552Z,1.97
2019-06-15T12:55:09.104Z,2.37
2019-06-15T12:57:35.332Z,1.77
2019-06-15T13:00:04.298Z,2.23
2019-06-15T13:02:30.538Z,2.90
2019-06-15T13:04:56.887Z,2.60
2019-06-15T13:07:23.120Z,2.17
2019-06-15T13:09:49.365Z,2.00
2019-06-15T13:12:15.600Z,2.00
2019-06-15T13:14:41.998Z,1.77
2019-06-15T13:17:08.304Z,1.90
2019-06-15T13:19:34.632Z,2.23
2019-06-15T13:22:00.885Z,2.03
2019-06-15T13:24:27.473Z,1.67
2019-06-15T13:26:53.718Z,2.13
2019-06-15T13:29:20.064Z,2.20
2019-06-15T13:31:46.358Z,2.40
2019-06-15T13:34:12.640Z,2.77
2019-06-15T13:36:39.228Z,2.33
2019-06-15T13:39:05.796Z,2.60
2019-06-15T13:41:32.016Z,2.87
2019-06-15T13:43:58.252Z,2.43
2019-06-15T13:46:25.008Z,4.47
2019-06-15T13:48:52.043Z,3.50
2019-06-15T13:51:18.283Z,2.50
2019-06-15T13:53:44.527Z,2.10
2019-06-15T13:56:10.858Z,2.90
2019-06-15T13:58:37.096Z,2.80
2019-06-15T14:01:03.758Z,2.63
2019-06-15T14:03:30.128Z,2.80
2019-06-15T14:05:56.361Z,2.47
2019-06-15T14:08:22.607Z,2.87
2019-06-15T14:10:48.850Z,2.90
2019-06-15T14:13:15.088Z,2.30
2019-06-15T14:15:41.320Z,3.57
2019-06-15T14:18:07.564Z,2.70
2019-06-15T14:20:34.219Z,3.00
2019-06-15T14:23:00.561Z,2.40
2019-06-15T14:25:26.789Z,3.00
2019-06-15T14:27:53.049Z,2.33
2019-06-15T14:30:19.291Z,2.83
2019-06-15T14:32:45.638Z,2.80
2019-06-15T14:35:12.158Z,2.80
2019-06-15T14:37:38.390Z,2.60
2019-06-15T14:40:05.341Z,2.60
2019-06-15T14:42:31.588Z,2.80
2019-06-15T14:44:57.841Z,2.87
2019-06-15T14:47:24.074Z,3.37
2019-06-15T14:49:50.320Z,2.73
2019-06-15T14:52:16.575Z,2.90
2019-06-15T14:54:42.810Z,2.50
2019-06-15T14:57:09.045Z,2.70
2019-06-15T14:59:51.642Z,2.50
2019-06-15T15:02:09.967Z,3.10
2019-06-15T15:04:31.686Z,3.17
2019-06-15T15:06:58.195Z,2.80
2019-06-15T15:09:24.826Z,2.97
2019-06-15T15:11:51.467Z,3.63
2019-06-15T15:14:17.731Z,3.10
2019-06-15T15:16:46.566Z,2.77
2019-06-15T15:19:12.097Z,3.23
2019-06-15T15:21:38.332Z,3.50
2019-06-15T15:24:06.222Z,2.97
2019-06-15T15:26:32.931Z,2.50
2019-06-15T15:28:59.286Z,2.70
2019-06-15T15:31:27.218Z,2.73
2019-06-15T15:33:55.987Z,2.70
2019-06-15T15:36:22.056Z,2.63
2019-06-15T15:38:48.277Z,2.43
2019-06-15T15:41:16.907Z,2.43
2019-06-15T15:43:43.261Z,3.80
2019-06-15T15:46:09.500Z,2.90
2019-06-15T15:48:36.414Z,3.43
2019-06-15T15:51:02.912Z,3.53
2019-06-15T15:53:29.146Z,2.70
2019-06-15T15:55:59.669Z,3.00
2019-06-15T15:58:23.940Z,2.73
2019-06-15T16:00:50.517Z,2.80
2019-06-15T16:03:16.749Z,2.90
2019-06-15T16:05:43.342Z,2.90
2019-06-15T16:08:09.584Z,3.00
2019-06-15T16:10:37.363Z,2.93
2019-06-15T16:13:06.292Z,3.10
2019-06-15T16:15:32.179Z,2.30
2019-06-15T16:17:58.412Z,3.47
2019-06-15T16:20:26.398Z,2.90
2019-06-15T16:22:52.814Z,3.10
2019-06-15T16:25:19.141Z,3.10
2019-06-15T16:27:46.339Z,3.00
2019-06-15T16:30:16.675Z,2.30
2019-06-15T16:32:42.978Z,2.13
2019-06-15T16:35:09.729Z,3.67
2019-06-15T16:37:36.294Z,2.87
2019-06-15T16:40:07.637Z,3.03
2019-06-15T16:42:36.334Z,6.80
2019-06-15T16:45:03.722Z,3.73
2019-06-15T16:47:30.070Z,3.00
2019-06-15T16:49:56.709Z,2.83
2019-06-15T16:52:23.425Z,3.13
2019-06-15T16:54:49.661Z,3.67
2019-06-15T16:57:16.139Z,2.97
2019-06-15T16:59:42.454Z,3.70
2019-06-15T17:02:08.696Z,3.63
2019-06-15T17:04:36.416Z,3.00
2019-06-15T17:07:03.000Z,3.40
2019-06-15T17:09:29.231Z,3.60
2019-06-15T17:11:57.086Z,3.27
2019-06-15T17:14:23.980Z,3.50
2019-06-15T17:16:50.413Z,2.80
2019-06-15T17:19:16.664Z,3.57
2019-06-15T17:21:42.998Z,4.20
2019-06-15T17:24:09.246Z,3.60
2019-06-15T17:26:36.473Z,4.00
2019-06-15T17:29:03.131Z,4.33
2019-06-15T17:31:29.476Z,4.07
2019-06-15T17:33:56.353Z,4.50
2019-06-15T17:36:22.868Z,23.40
2019-06-15T17:38:49.113Z,11.10
2019-06-15T17:41:17.358Z,10.97
2019-06-15T17:43:44.082Z,2.40
2019-06-15T17:46:10.396Z,3.00
2019-06-15T17:48:37.153Z,3.53
2019-06-15T17:51:03.475Z,3.30
2019-06-15T17:53:29.734Z,4.00
2019-06-15T17:55:56.170Z,3.20
2019-06-15T17:58:22.937Z,3.63
2019-06-15T18:00:49.281Z,7.83
2019-06-15T18:03:17.016Z,4.63
2019-06-15T18:05:43.763Z,4.13
2019-06-15T18:08:10.405Z,3.70
2019-06-15T18:10:36.668Z,3.90
2019-06-15T18:13:03.740Z,3.73
2019-06-15T18:15:30.176Z,3.70
2019-06-15T18:17:56.410Z,3.90
2019-06-15T18:20:27.015Z,2.60
2019-06-15T18:22:53.478Z,8.43
2019-06-15T18:25:20.015Z,7.47
2019-06-15T18:27:46.387Z,13.20
2019-06-15T18:30:13.394Z,3.90
2019-06-15T18:32:39.741Z,3.03
2019-06-15T18:35:06.403Z,3.43
2019-06-15T18:37:33.952Z,3.60
2019-06-15T18:40:00.178Z,3.30
2019-06-15T18:42:26.721Z,3.20
2019-06-15T18:44:52.954Z,3.27
2019-06-15T18:47:19.397Z,3.30
2019-06-15T18:49:47.279Z,3.67
2019-06-15T18:52:13.986Z,51.07
2019-06-15T18:54:40.326Z,10.47
2019-06-15T18:57:07.411Z,3.33
2019-06-15T18:59:36.423Z,7.40
2019-06-15T19:02:02.247Z,3.80
2019-06-15T19:04:31.049Z,3.80
2019-06-15T19:06:56.929Z,4.73
2019-06-15T19:09:23.177Z,5.00
2019-06-15T19:11:49.532Z,4.33
2019-06-15T19:14:16.596Z,3.73
2019-06-15T19:16:43.005Z,4.10
2019-06-15T19:19:09.407Z,7.00
2019-06-15T19:21:35.686Z,5.43
2019-06-15T19:24:01.936Z,3.63
2019-06-15T19:26:28.175Z,4.13
2019-06-15T19:28:55.987Z,3.73
2019-06-15T19:31:22.486Z,4.07
2019-06-15T19:33:48.770Z,3.43
2019-06-15T19:36:15.010Z,4.00
2019-06-15T19:38:41.601Z,3.13
2019-06-15T19:41:07.884Z,3.50
2019-06-15T19:43:36.294Z,3.07
2019-06-15T19:46:02.601Z,3.27
2019-06-15T19:48:28.937Z,2.87
2019-06-15T19:50:56.621Z,3.43
2019-06-15T19:53:23.117Z,3.27
2019-06-15T19:55:49.480Z,5.97
2019-06-15T19:58:16.440Z,4.00
2019-06-15T20:00:42.887Z,4.67
2019-06-15T20:03:09.130Z,3.47
2019-06-15T20:05:37.055Z,3.00
2019-06-15T20:08:06.730Z,3.80
2019-06-15T20:10:32.586Z,15.43
2019-06-15T20:12:59.147Z,4.20
2019-06-15T20:15:26.397Z,3.87
2019-06-15T20:17:52.721Z,5.80
2019-06-15T20:20:19.179Z,4.10
2019-06-15T20:22:46.801Z,3.90
2019-06-15T20:25:16.089Z,3.73
2019-06-15T20:27:42.394Z,4.13
2019-06-15T20:30:10.076Z,3.10
2019-06-15T20:32:36.861Z,3.40
2019-06-15T20:35:17.079Z,10.87
2019-06-15T20:37:36.926Z,10.53
2019-06-15T20:40:07.726Z,3.77
2019-06-15T20:42:36.506Z,3.87
2019-06-15T20:45:04.719Z,4.33
2019-06-15T20:47:30.961Z,4.03
2019-06-15T20:49:57.529Z,4.90
2019-06-15T20:52:23.861Z,8.50
2019-06-15T20:54:50.118Z,12.87
2019-06-15T20:57:16.643Z,22.77
2019-06-15T20:59:42.961Z,3.00
2019-06-15T21:02:09.300Z,3.07
2019-06-15T21:04:36.352Z,3.20
2019-06-15T21:07:03.425Z,3.60
2019-06-15T21:09:29.741Z,3.50
2019-06-15T21:11:56.003Z,10.10
2019-06-15T21:14:22.575Z,19.87
2019-06-15T21:16:48.945Z,9.20
2019-06-15T21:19:17.001Z,4.83
2019-06-15T21:21:43.483Z,3.47
2019-06-15T21:24:09.719Z,17.23
2019-06-15T21:26:36.102Z,3.70
2019-06-15T21:29:02.818Z,7.50
2019-06-15T21:31:29.104Z,4.20
2019-06-15T21:33:56.123Z,13.60
2019-06-15T21:36:22.643Z,12.00
2019-06-15T21:38:48.881Z,3.53
2019-06-15T21:41:16.646Z,7.00
2019-06-15T21:43:43.313Z,4.60
2019-06-15T21:46:09.563Z,3.67
2019-06-15T21:48:36.573Z,9.23
2019-06-15T21:51:03.166Z,9.03
2019-06-15T21:53:29.406Z,9.37
2019-06-15T21:55:56.335Z,10.80
2019-06-15T21:58:22.695Z,29.53
2019-06-15T22:01:01.635Z,22.80
2019-06-15T22:03:27.970Z,19.13
2019-06-15T22:06:02.703Z,14.10
2019-06-15T22:08:22.746Z,12.40
2019-06-15T22:10:49.101Z,13.00
2019-06-15T22:13:16.040Z,12.70
2019-06-15T22:15:42.590Z,12.43
2019-06-15T22:18:08.838Z,13.20
2019-06-15T22:20:36.016Z,13.87
2019-06-15T22:23:02.989Z,12.70
2019-06-15T22:25:29.238Z,8.33
2019-06-15T22:27:56.164Z,6.30
2019-06-15T22:30:22.905Z,12.93
2019-06-15T22:32:49.159Z,5.50
2019-06-15T22:35:16.467Z,7.27
2019-06-15T22:37:43.003Z,7.80
2019-06-15T22:40:09.367Z,6.23
2019-06-15T22:42:36.255Z,5.03
2019-06-15T22:45:06.743Z,6.10
2019-06-15T22:47:35.934Z,4.30
2019-06-15T22:50:06.929Z,3.43
2019-06-15T22:52:36.246Z,3.67
2019-06-15T22:55:06.380Z,3.40
2019-06-15T22:57:32.633Z,3.60
2019-06-15T22:59:58.968Z,3.03
2019-06-15T23:02:26.845Z,3.37
2019-06-15T23:04:56.612Z,10.17
2019-06-15T23:07:23.361Z,6.80
2019-06-15T23:09:49.624Z,12.60
2019-06-15T23:12:16.084Z,8.67
2019-06-15T23:14:46.456Z,4.87
2019-06-15T23:17:12.413Z,3.40
2019-06-15T23:19:38.747Z,4.00
2019-06-15T23:22:07.626Z,3.43
2019-06-15T23:24:33.139Z,4.00
2019-06-15T23:26:59.486Z,4.90
2019-06-15T23:29:27.128Z,12.27
2019-06-15T23:31:53.837Z,7.10
2019-06-15T23:34:20.096Z,4.17
2019-06-15T23:36:56.371Z,4.27
2019-06-15T23:39:18.937Z,3.97
2019-06-15T23:41:46.948Z,4.63
2019-06-15T23:44:16.044Z,6.13
2019-06-15T23:46:41.467Z,5.70
2019-06-15T23:49:07.724Z,4.43
2019-06-15T23:51:34.145Z,5.30
2019-06-15T23:54:00.381Z,5.07
2019-06-15T23:56:26.621Z,5.87
2019-06-15T23:58:52.873Z,5.90
